createdAt,value
2018-05-21T00:01:00.045Z,129.07
2018-05-21T00:03:28.189Z,131.60
2018-05-21T00:05:56.306Z,127.70
2018-05-21T00:08:23.838Z,136.90
2018-05-21T00:10:51.839Z,124.40
2018-05-21T00:13:19.538Z,124.77
2018-05-21T00:15:47.369Z,124.50
2018-05-21T00:18:14.878Z,112.00
2018-05-21T00:20:42.483Z,121.07
2018-05-21T00:23:10.144Z,114.83
2018-05-21T00:25:37.801Z,112.07
2018-05-21T00:28:05.656Z,95.63
2018-05-21T00:30:33.330Z,102.30
2018-05-21T00:33:00.908Z,95.80
2018-05-21T00:35:28.425Z,98.00
2018-05-21T00:37:56.100Z,101.43
2018-05-21T00:40:23.812Z,88.47
2018-05-21T00:42:51.316Z,97.57
2018-05-21T00:45:18.836Z,84.00
2018-05-21T00:47:46.570Z,76.73
2018-05-21T00:50:14.208Z,92.93
2018-05-21T00:52:41.864Z,88.20
2018-05-21T00:55:21.405Z,77.77
2018-05-21T00:57:49.041Z,91.87
2018-05-21T01:00:16.728Z,76.53
2018-05-21T01:02:44.587Z,74.13
2018-05-21T01:05:12.211Z,77.07
2018-05-21T01:07:40.119Z,93.50
2018-05-21T01:10:07.760Z,76.77
2018-05-21T01:12:35.396Z,78.83
2018-05-21T01:15:03.097Z,80.67
2018-05-21T01:17:30.766Z,75.83
2018-05-21T01:19:59.145Z,78.23
2018-05-21T01:22:26.922Z,72.33
2018-05-21T01:24:54.565Z,67.93
2018-05-21T01:27:22.228Z,75.07
2018-05-21T01:29:49.748Z,73.40
2018-05-21T01:32:22.845Z,55.87
2018-05-21T01:34:50.534Z,66.17
2018-05-21T01:37:18.057Z,68.47
2018-05-21T01:39:45.690Z,36.20
2018-05-21T01:42:13.468Z,54.63
2018-05-21T01:44:40.996Z,61.60
2018-05-21T01:47:08.588Z,51.43
2018-05-21T01:49:36.288Z,53.73
2018-05-21T01:52:04.181Z,63.37
2018-05-21T01:54:32.043Z,46.37
2018-05-21T01:56:59.697Z,46.70
2018-05-21T01:59:27.514Z,56.77
2018-05-21T02:02:04.245Z,37.13
2018-05-21T02:04:31.884Z,43.37
2018-05-21T02:06:59.499Z,35.27
2018-05-21T02:09:27.212Z,43.50
2018-05-21T02:11:54.866Z,40.10
2018-05-21T02:14:22.532Z,45.47
2018-05-21T02:16:50.205Z,33.57
2018-05-21T02:19:17.944Z,38.93
2018-05-21T02:21:45.735Z,47.10
2018-05-21T02:24:13.327Z,25.13
2018-05-21T02:26:41.246Z,45.57
2018-05-21T02:29:08.856Z,39.87
2018-05-21T02:31:36.570Z,32.93
2018-05-21T02:34:04.220Z,31.20
2018-05-21T02:36:31.856Z,46.53
2018-05-21T02:38:59.496Z,29.23
2018-05-21T02:41:27.238Z,37.30
2018-05-21T02:43:55.282Z,27.67
2018-05-21T02:46:22.909Z,34.97
2018-05-21T02:48:50.551Z,34.67
2018-05-21T02:51:18.262Z,33.40
2018-05-21T02:53:45.934Z,24.87
2018-05-21T02:56:13.531Z,24.30
2018-05-21T02:58:41.193Z,27.77
2018-05-21T03:01:08.875Z,26.77
2018-05-21T03:03:36.388Z,30.17
2018-05-21T03:06:04.024Z,23.57
2018-05-21T03:08:31.700Z,31.53
2018-05-21T03:10:59.293Z,34.67
2018-05-21T03:13:26.983Z,36.60
2018-05-21T03:15:54.618Z,31.87
2018-05-21T03:18:22.293Z,26.20
2018-05-21T03:20:50.398Z,25.37
2018-05-21T03:23:18.678Z,29.47
2018-05-21T03:25:46.554Z,38.30
2018-05-21T03:28:14.236Z,22.10
2018-05-21T03:30:42.066Z,26.20
2018-05-21T03:33:09.699Z,34.67
2018-05-21T03:35:37.400Z,26.83
2018-05-21T03:38:05.251Z,25.77
2018-05-21T03:40:32.937Z,23.00
2018-05-21T03:43:00.548Z,26.20
2018-05-21T03:45:28.056Z,19.90
2018-05-21T03:47:55.640Z,19.27
2018-05-21T03:50:23.368Z,16.87
2018-05-21T03:52:50.965Z,23.83
2018-05-21T03:55:18.563Z,22.00
2018-05-21T03:57:46.543Z,23.97
2018-05-21T04:00:25.871Z,16.63
2018-05-21T04:03:19.339Z,23.70
2018-05-21T04:05:52.688Z,24.40
2018-05-21T04:08:20.197Z,23.33
2018-05-21T04:10:47.847Z,25.17
2018-05-21T04:13:15.472Z,21.43
2018-05-21T04:15:43.174Z,18.30
2018-05-21T04:18:10.684Z,15.63
2018-05-21T04:20:38.319Z,17.10
2018-05-21T04:23:05.953Z,24.50
2018-05-21T04:25:33.602Z,17.20
2018-05-21T04:28:01.474Z,16.70
2018-05-21T04:30:29.100Z,19.10
2018-05-21T04:32:56.794Z,15.23
2018-05-21T04:35:24.421Z,10.73
2018-05-21T04:37:51.933Z,13.10
2018-05-21T04:40:19.736Z,14.40
2018-05-21T04:42:47.446Z,23.70
2018-05-21T04:45:15.101Z,23.03
2018-05-21T04:47:42.960Z,21.33
2018-05-21T04:50:10.635Z,15.37
2018-05-21T04:52:38.303Z,17.20
2018-05-21T04:55:05.857Z,21.23
2018-05-21T04:57:33.514Z,14.47
2018-05-21T05:00:01.481Z,20.10
2018-05-21T05:02:29.309Z,20.20
2018-05-21T05:04:57.382Z,19.23
2018-05-21T05:07:25.033Z,20.17
2018-05-21T05:09:52.688Z,19.57
2018-05-21T05:12:20.208Z,18.70
2018-05-21T05:14:47.853Z,18.63
2018-05-21T05:17:15.523Z,16.50
2018-05-21T05:19:43.381Z,16.40
2018-05-21T05:22:11.037Z,16.73
2018-05-21T05:24:38.702Z,17.30
2018-05-21T05:27:06.365Z,15.13
2018-05-21T05:29:34.021Z,15.60
2018-05-21T05:32:02.090Z,14.60
2018-05-21T05:34:29.752Z,16.50
2018-05-21T05:36:57.621Z,15.43
2018-05-21T05:39:25.257Z,14.73
2018-05-21T05:41:52.936Z,12.97
2018-05-21T05:44:20.604Z,13.33
2018-05-21T05:46:48.266Z,13.77
2018-05-21T05:49:15.932Z,14.80
2018-05-21T05:51:43.592Z,12.83
2018-05-21T05:54:11.240Z,13.53
2018-05-21T05:56:38.905Z,13.33
2018-05-21T05:59:06.570Z,12.10
2018-05-21T06:01:34.229Z,13.77
2018-05-21T06:04:01.842Z,13.47
2018-05-21T06:06:29.552Z,12.80
2018-05-21T06:08:57.056Z,13.10
2018-05-21T06:11:24.921Z,12.17
2018-05-21T06:13:52.489Z,13.83
2018-05-21T06:16:20.222Z,13.60
2018-05-21T06:18:47.732Z,11.37
2018-05-21T06:21:15.924Z,12.30
2018-05-21T06:23:43.635Z,11.80
2018-05-21T06:26:11.196Z,11.77
2018-05-21T06:28:38.729Z,11.50
2018-05-21T06:31:06.412Z,12.00
2018-05-21T06:33:34.234Z,14.60
2018-05-21T06:36:01.847Z,13.07
2018-05-21T06:38:29.532Z,10.97
2018-05-21T06:40:57.244Z,12.53
2018-05-21T06:43:24.852Z,10.53
2018-05-21T06:45:52.489Z,10.63
2018-05-21T06:48:20.273Z,10.87
2018-05-21T06:50:48.294Z,10.67
2018-05-21T06:53:15.932Z,11.37
2018-05-21T06:55:43.540Z,12.13
2018-05-21T06:58:11.253Z,11.90
2018-05-21T07:00:38.765Z,10.43
2018-05-21T07:03:06.373Z,10.90
2018-05-21T07:05:33.996Z,11.77
2018-05-21T07:08:01.789Z,11.50
2018-05-21T07:10:29.193Z,12.60
2018-05-21T07:12:57.012Z,12.70
2018-05-21T07:15:24.684Z,13.30
2018-05-21T07:17:52.352Z,13.20
2018-05-21T07:20:19.984Z,13.63
2018-05-21T07:22:58.582Z,13.30
2018-05-21T07:25:26.585Z,14.10
2018-05-21T07:27:54.656Z,13.90
2018-05-21T07:30:22.645Z,13.33
2018-05-21T07:32:50.330Z,12.80
2018-05-21T07:35:17.838Z,12.63
2018-05-21T07:37:45.352Z,12.80
2018-05-21T07:40:12.937Z,12.80
2018-05-21T07:42:40.569Z,12.77
2018-05-21T07:45:08.273Z,12.70
2018-05-21T07:47:35.938Z,13.37
2018-05-21T07:50:03.812Z,12.83
2018-05-21T07:52:31.474Z,13.27
2018-05-21T07:54:59.124Z,13.10
2018-05-21T07:57:26.773Z,12.43
2018-05-21T07:59:54.453Z,13.10
2018-05-21T08:02:22.339Z,13.00
2018-05-21T08:04:49.976Z,12.83
2018-05-21T08:07:17.592Z,12.30
2018-05-21T08:09:45.248Z,11.70
2018-05-21T08:12:12.962Z,11.67
2018-05-21T08:14:40.835Z,11.50
2018-05-21T08:17:08.442Z,10.80
2018-05-21T08:19:36.108Z,11.87
2018-05-21T08:22:04.226Z,10.70
2018-05-21T08:24:31.893Z,11.60
2018-05-21T08:26:59.702Z,11.70
2018-05-21T08:29:27.899Z,11.33
2018-05-21T08:31:55.453Z,10.10
2018-05-21T08:34:23.562Z,10.50
2018-05-21T08:36:51.196Z,10.10
2018-05-21T08:39:18.820Z,10.37
2018-05-21T08:41:46.531Z,10.20
2018-05-21T08:44:14.187Z,10.77
2018-05-21T08:46:41.871Z,9.30
2018-05-21T08:49:09.515Z,10.20
2018-05-21T08:51:37.124Z,9.87
2018-05-21T08:54:04.852Z,10.17
2018-05-21T08:56:32.538Z,10.30
2018-05-21T08:59:00.161Z,9.40
2018-05-21T09:01:27.663Z,9.50
2018-05-21T09:03:55.264Z,9.97
2018-05-21T09:06:23.132Z,9.97
2018-05-21T09:08:50.753Z,9.90
2018-05-21T09:11:18.406Z,8.67
2018-05-21T09:13:46.316Z,9.77
2018-05-21T09:16:13.988Z,9.50
2018-05-21T09:18:41.516Z,8.43
2018-05-21T09:21:09.516Z,8.60
2018-05-21T09:23:37.233Z,8.20
2018-05-21T09:26:05.232Z,9.23
2018-05-21T09:28:32.923Z,7.70
2018-05-21T09:31:00.515Z,8.80
2018-05-21T09:33:28.172Z,7.97
2018-05-21T09:35:55.833Z,7.93
2018-05-21T09:38:23.561Z,8.47
2018-05-21T09:40:51.229Z,9.00
2018-05-21T09:43:18.967Z,8.40
2018-05-21T09:45:46.552Z,8.60
2018-05-21T09:48:14.311Z,8.80
2018-05-21T09:50:41.740Z,9.10
2018-05-21T09:53:09.326Z,8.70
2018-05-21T09:55:36.939Z,7.57
2018-05-21T09:58:04.802Z,7.77
2018-05-21T10:00:32.469Z,7.77
2018-05-21T10:03:00.109Z,8.67
2018-05-21T10:05:28.173Z,7.90
2018-05-21T10:07:55.890Z,8.20
2018-05-21T10:10:23.516Z,7.77
2018-05-21T10:12:51.212Z,7.67
2018-05-21T10:15:18.905Z,7.80
2018-05-21T10:17:46.549Z,7.93
2018-05-21T10:20:14.390Z,8.00
2018-05-21T10:22:42.020Z,7.53
2018-05-21T10:25:10.021Z,7.73
2018-05-21T10:27:37.600Z,7.60
2018-05-21T10:30:05.267Z,8.10
2018-05-21T10:32:32.907Z,8.17
2018-05-21T10:35:00.524Z,7.50
2018-05-21T10:37:28.181Z,8.10
2018-05-21T10:39:55.911Z,6.93
2018-05-21T10:42:23.592Z,7.70
2018-05-21T10:44:51.217Z,7.00
2018-05-21T10:47:18.874Z,6.87
2018-05-21T10:49:46.689Z,7.80
2018-05-21T10:52:14.399Z,7.00
2018-05-21T10:54:42.011Z,7.20
2018-05-21T10:57:09.728Z,7.03
2018-05-21T10:59:37.539Z,7.30
2018-05-21T11:02:05.225Z,6.93
2018-05-21T11:04:33.178Z,6.60
2018-05-21T11:07:00.946Z,6.87
2018-05-21T11:09:28.460Z,6.33
2018-05-21T11:11:56.122Z,6.87
2018-05-21T11:14:23.919Z,7.43
2018-05-21T11:16:51.601Z,7.00
2018-05-21T11:19:19.365Z,7.00
2018-05-21T11:21:47.324Z,6.30
2018-05-21T11:24:14.964Z,7.10
2018-05-21T11:26:42.627Z,7.43
2018-05-21T11:29:10.135Z,6.37
2018-05-21T11:31:37.945Z,7.13
2018-05-21T11:34:05.601Z,6.10
2018-05-21T11:36:33.323Z,6.67
2018-05-21T11:39:00.972Z,6.93
2018-05-21T11:41:28.589Z,6.40
2018-05-21T11:43:56.263Z,5.90
2018-05-21T11:46:23.914Z,7.23
2018-05-21T11:48:51.671Z,6.23
2018-05-21T11:51:19.365Z,6.10
2018-05-21T11:53:47.559Z,7.10
2018-05-21T11:56:15.157Z,6.67
2018-05-21T11:58:42.846Z,5.97
2018-05-21T12:01:10.838Z,5.43
2018-05-21T12:03:38.618Z,6.40
2018-05-21T12:06:06.446Z,6.90
2018-05-21T12:08:34.077Z,5.70
2018-05-21T12:11:01.585Z,5.90
2018-05-21T12:13:29.235Z,6.77
2018-05-21T12:15:56.733Z,5.43
2018-05-21T12:18:24.336Z,6.20
2018-05-21T12:20:52.394Z,6.80
2018-05-21T12:23:19.898Z,6.03
2018-05-21T12:25:47.789Z,6.03
2018-05-21T12:28:15.654Z,5.93
2018-05-21T12:30:43.248Z,6.47
2018-05-21T12:33:10.949Z,5.83
2018-05-21T12:35:38.464Z,5.63
2018-05-21T12:38:06.582Z,5.70
2018-05-21T12:40:34.096Z,5.77
2018-05-21T12:43:01.693Z,5.87
2018-05-21T12:45:29.312Z,5.57
2018-05-21T12:47:57.144Z,6.20
2018-05-21T12:50:24.804Z,6.70
2018-05-21T12:52:52.485Z,5.73
2018-05-21T12:55:20.193Z,5.10
2018-05-21T12:57:48.180Z,5.40
2018-05-21T13:00:15.860Z,5.77
2018-05-21T13:02:43.508Z,5.33
2018-05-21T13:05:11.194Z,5.37
2018-05-21T13:07:38.702Z,5.20
2018-05-21T13:10:06.892Z,5.07
2018-05-21T13:12:34.757Z,5.83
2018-05-21T13:15:02.385Z,5.43
2018-05-21T13:17:30.020Z,5.07
2018-05-21T13:19:57.557Z,6.20
2018-05-21T13:22:25.232Z,5.30
2018-05-21T13:24:52.804Z,4.80
2018-05-21T13:27:20.441Z,5.93
2018-05-21T13:29:48.129Z,5.23
2018-05-21T13:32:15.625Z,4.87
2018-05-21T13:34:43.386Z,5.37
2018-05-21T13:37:10.959Z,5.23
2018-05-21T13:39:38.624Z,5.17
2018-05-21T13:42:06.279Z,5.00
2018-05-21T13:44:33.918Z,5.87
2018-05-21T13:47:01.606Z,5.10
2018-05-21T13:49:29.249Z,5.10
2018-05-21T13:51:57.034Z,5.20
2018-05-21T13:54:24.792Z,5.87
2018-05-21T13:56:52.502Z,4.77
2018-05-21T13:59:20.052Z,5.10
2018-05-21T14:01:47.722Z,5.37
2018-05-21T14:04:15.485Z,5.50
2018-05-21T14:06:43.040Z,5.30
2018-05-21T14:09:10.771Z,5.20
2018-05-21T14:11:38.364Z,5.03
2018-05-21T14:14:19.061Z,5.57
2018-05-21T14:16:46.617Z,5.17
2018-05-21T14:19:14.253Z,5.57
2018-05-21T14:21:42.264Z,5.10
2018-05-21T14:24:09.777Z,5.57
2018-05-21T14:26:37.337Z,5.37
2018-05-21T14:29:04.961Z,4.73
2018-05-21T14:31:32.624Z,4.80
2018-05-21T14:34:00.492Z,4.70
2018-05-21T14:36:28.279Z,4.80
2018-05-21T14:38:55.996Z,4.67
2018-05-21T14:41:23.497Z,5.50
2018-05-21T14:43:51.177Z,4.57
2018-05-21T14:46:18.724Z,4.70
2018-05-21T14:48:46.386Z,4.97
2018-05-21T14:51:14.043Z,4.63
2018-05-21T14:53:41.586Z,4.33
2018-05-21T14:56:09.370Z,4.57
2018-05-21T14:58:37.036Z,4.80
2018-05-21T15:01:04.681Z,4.80
2018-05-21T15:03:32.405Z,4.50
2018-05-21T15:05:59.921Z,4.70
2018-05-21T15:08:27.589Z,4.50
2018-05-21T15:10:55.533Z,4.87
2018-05-21T15:13:23.324Z,4.57
2018-05-21T15:15:51.273Z,4.23
2018-05-21T15:18:19.128Z,4.30
2018-05-21T15:20:46.810Z,4.33
2018-05-21T15:23:14.532Z,4.83
2018-05-21T15:25:42.192Z,4.80
2018-05-21T15:28:09.817Z,4.63
2018-05-21T15:30:37.499Z,4.83
2018-05-21T15:33:05.146Z,3.90
2018-05-21T15:35:32.989Z,4.63
2018-05-21T15:38:00.657Z,4.33
2018-05-21T15:40:28.383Z,4.90
2018-05-21T15:42:56.161Z,4.33
2018-05-21T15:45:23.898Z,4.13
2018-05-21T15:47:51.526Z,4.03
2018-05-21T15:50:19.158Z,4.20
2018-05-21T15:52:47.144Z,3.97
2018-05-21T15:55:14.915Z,4.10
2018-05-21T15:57:47.044Z,4.77
2018-05-21T16:00:14.954Z,4.67
2018-05-21T16:02:42.809Z,4.30
2018-05-21T16:05:10.521Z,4.60
2018-05-21T16:07:39.037Z,4.00
2018-05-21T16:10:07.053Z,4.03
2018-05-21T16:12:34.707Z,4.40
2018-05-21T16:15:02.481Z,4.30
2018-05-21T16:17:31.049Z,4.20
2018-05-21T16:19:58.897Z,4.30
2018-05-21T16:22:26.600Z,4.23
2018-05-21T16:24:54.234Z,3.90
2018-05-21T16:27:23.115Z,4.00
2018-05-21T16:29:50.769Z,4.00
2018-05-21T16:32:18.788Z,4.50
2018-05-21T16:34:46.509Z,4.93
2018-05-21T16:37:14.166Z,3.87
2018-05-21T16:39:41.672Z,4.17
2018-05-21T16:42:09.274Z,4.10
2018-05-21T16:44:36.942Z,3.60
2018-05-21T16:47:04.621Z,4.37
2018-05-21T16:49:32.128Z,4.27
2018-05-21T16:52:00.120Z,3.90
2018-05-21T16:54:27.801Z,3.90
2018-05-21T16:56:55.649Z,4.10
2018-05-21T16:59:23.541Z,4.00
2018-05-21T17:01:51.069Z,3.83
2018-05-21T17:04:18.797Z,3.97
2018-05-21T17:06:46.445Z,4.40
2018-05-21T17:09:14.120Z,4.07
2018-05-21T17:11:41.776Z,3.57
2018-05-21T17:14:19.750Z,3.80
2018-05-21T17:16:47.412Z,4.60
2018-05-21T17:19:15.129Z,3.60
2018-05-21T17:21:43.273Z,3.80
2018-05-21T17:24:11.006Z,3.80
2018-05-21T17:26:38.805Z,3.83
2018-05-21T17:29:11.185Z,3.90
2018-05-21T17:31:38.895Z,4.43
2018-05-21T17:34:06.751Z,4.00
2018-05-21T17:36:34.369Z,4.17
2018-05-21T17:39:02.017Z,3.93
2018-05-21T17:41:29.954Z,4.00
2018-05-21T17:43:57.821Z,4.27
2018-05-21T17:46:25.413Z,3.77
2018-05-21T17:48:53.101Z,4.03
2018-05-21T17:51:20.782Z,3.93
2018-05-21T17:53:48.317Z,3.80
2018-05-21T17:56:16.466Z,3.67
2018-05-21T17:58:44.148Z,3.90
2018-05-21T18:01:11.648Z,4.27
2018-05-21T18:03:39.471Z,3.97
2018-05-21T18:06:07.164Z,4.10
2018-05-21T18:08:34.792Z,3.77
2018-05-21T18:11:02.483Z,4.00
2018-05-21T18:13:30.090Z,4.10
2018-05-21T18:15:57.801Z,4.27
2018-05-21T18:18:25.469Z,4.17
2018-05-21T18:20:53.338Z,4.07
2018-05-21T18:23:20.949Z,3.93
2018-05-21T18:25:48.453Z,3.40
2018-05-21T18:28:16.128Z,3.63
2018-05-21T18:30:43.849Z,4.13
2018-05-21T18:33:11.587Z,3.83
2018-05-21T18:35:39.236Z,4.00
2018-05-21T18:38:07.040Z,3.90
2018-05-21T18:40:35.235Z,3.73
2018-05-21T18:43:02.845Z,3.60
2018-05-21T18:45:30.532Z,3.87
2018-05-21T18:47:58.209Z,3.70
2018-05-21T18:50:25.857Z,3.73
2018-05-21T18:52:53.545Z,3.80
2018-05-21T18:55:21.407Z,3.80
2018-05-21T18:57:49.261Z,3.20
2018-05-21T19:00:16.961Z,3.50
2018-05-21T19:02:44.789Z,3.57
2018-05-21T19:05:12.419Z,4.07
2018-05-21T19:07:40.127Z,3.20
2018-05-21T19:10:07.797Z,3.53
2018-05-21T19:12:35.457Z,3.40
2018-05-21T19:15:03.090Z,3.80
2018-05-21T19:17:31.137Z,3.77
2018-05-21T19:19:58.853Z,3.83
2018-05-21T19:22:26.699Z,3.87
2018-05-21T19:24:54.312Z,3.23
2018-05-21T19:27:22.013Z,3.70
2018-05-21T19:29:49.701Z,3.50
2018-05-21T19:32:17.377Z,3.43
2018-05-21T19:34:45.026Z,3.70
2018-05-21T19:37:12.656Z,3.30
2018-05-21T19:39:40.327Z,3.67
2018-05-21T19:42:08.034Z,3.80
2018-05-21T19:44:35.650Z,3.70
2018-05-21T19:47:03.256Z,3.37
2018-05-21T19:49:30.781Z,3.27
2018-05-21T19:51:58.375Z,3.37
2018-05-21T19:54:25.937Z,3.43
2018-05-21T19:56:53.532Z,4.00
2018-05-21T19:59:21.401Z,3.60
2018-05-21T20:01:49.070Z,3.40
2018-05-21T20:04:16.756Z,3.80
2018-05-21T20:06:44.341Z,3.23
2018-05-21T20:09:12.088Z,3.80
2018-05-21T20:11:39.717Z,3.73
2018-05-21T20:14:07.336Z,3.50
2018-05-21T20:16:39.341Z,3.23
2018-05-21T20:19:06.967Z,4.00
2018-05-21T20:21:35.013Z,3.37
2018-05-21T20:24:02.692Z,3.13
2018-05-21T20:26:30.338Z,3.97
2018-05-21T20:28:58.025Z,3.50
2018-05-21T20:31:25.604Z,4.20
2018-05-21T20:33:53.209Z,3.37
2018-05-21T20:36:20.840Z,3.13
2018-05-21T20:38:48.349Z,4.17
2018-05-21T20:41:15.889Z,4.10
2018-05-21T20:43:43.617Z,3.37
2018-05-21T20:46:11.261Z,3.73
2018-05-21T20:48:38.876Z,4.00
2018-05-21T20:51:06.544Z,3.90
2018-05-21T20:53:34.265Z,3.60
2018-05-21T20:56:02.061Z,3.70
2018-05-21T20:58:29.775Z,3.40
2018-05-21T21:00:57.382Z,3.60
2018-05-21T21:03:25.069Z,3.90
2018-05-21T21:05:52.801Z,2.80
2018-05-21T21:08:20.565Z,3.67
2018-05-21T21:10:48.299Z,3.37
2018-05-21T21:13:16.100Z,3.80
2018-05-21T21:15:43.817Z,3.70
2018-05-21T21:18:11.553Z,3.67
2018-05-21T21:20:39.740Z,3.40
2018-05-21T21:23:07.255Z,3.47
2018-05-21T21:25:35.011Z,3.37
2018-05-21T21:28:02.677Z,3.33
2018-05-21T21:30:30.363Z,2.97
2018-05-21T21:32:58.127Z,3.33
2018-05-21T21:35:25.722Z,3.33
2018-05-21T21:37:53.574Z,3.60
2018-05-21T21:40:21.087Z,3.50
2018-05-21T21:42:48.586Z,3.03
2018-05-21T21:45:16.172Z,3.90
2018-05-21T21:47:43.808Z,4.07
2018-05-21T21:50:11.445Z,3.60
2018-05-21T21:52:39.091Z,3.80
2018-05-21T21:55:06.962Z,3.70
2018-05-21T21:57:34.489Z,3.67
2018-05-21T22:00:02.171Z,3.70
2018-05-21T22:02:29.730Z,3.10
2018-05-21T22:04:57.397Z,3.40
2018-05-21T22:07:25.141Z,3.17
2018-05-21T22:09:52.749Z,3.37
2018-05-21T22:12:20.413Z,3.50
2018-05-21T22:14:48.284Z,3.33
2018-05-21T22:17:15.941Z,3.40
2018-05-21T22:19:43.605Z,3.37
2018-05-21T22:22:11.220Z,3.97
2018-05-21T22:24:38.934Z,3.20
2018-05-21T22:27:06.598Z,3.60
2018-05-21T22:29:34.451Z,3.37
2018-05-21T22:32:02.113Z,3.80
2018-05-21T22:34:29.801Z,3.40
2018-05-21T22:36:57.437Z,3.10
2018-05-21T22:39:25.314Z,3.50
2018-05-21T22:41:52.992Z,3.50
2018-05-21T22:44:20.829Z,3.43
2018-05-21T22:46:48.449Z,3.60
2018-05-21T22:49:15.968Z,3.10
2018-05-21T22:51:43.609Z,3.20
2018-05-21T22:54:11.280Z,4.00
2018-05-21T22:56:38.881Z,3.40
2018-05-21T22:59:06.405Z,2.97
2018-05-21T23:01:34.014Z,3.17
2018-05-21T23:04:05.577Z,3.57
2018-05-21T23:06:33.361Z,3.73
2018-05-21T23:09:01.323Z,3.10
2018-05-21T23:11:29.152Z,3.73
2018-05-21T23:13:56.884Z,4.57
2018-05-21T23:16:24.675Z,3.70
2018-05-21T23:19:02.506Z,3.87
2018-05-21T23:21:29.973Z,3.57
2018-05-21T23:23:57.699Z,3.10
2018-05-21T23:26:25.353Z,3.17
2018-05-21T23:28:53.085Z,3.40
2018-05-21T23:31:20.934Z,3.90
2018-05-21T23:33:48.953Z,3.43
2018-05-21T23:36:16.463Z,3.50
2018-05-21T23:38:44.348Z,3.63
2018-05-21T23:41:11.952Z,3.50
2018-05-21T23:43:39.576Z,3.43
2018-05-21T23:46:07.204Z,3.30
2018-05-21T23:48:34.709Z,3.17
2018-05-21T23:51:02.456Z,3.63
2018-05-21T23:53:30.039Z,3.53
2018-05-21T23:55:57.709Z,3.80
2018-05-21T23:58:25.422Z,3.63
